Time,TemperatureF,DewpointF,PressureIn,WindDirection,WindDirectionDegrees,WindSpeedMPH,WindSpeedGustMPH,Humidity,HourlyPrecipIn,Conditions,Clouds,dailyrainin,SoftwareType,DateUTC
2013-10-28 00:00:00,38.0,37.2,29.95,SSW,194,2.0,15.0,97,0.00,,,0.34,Wunderground v.1.15,2013-10-28 03:00:00,
2013-10-28 00:05:00,38.3,37.5,29.95,South,191,2.0,15.0,97,0.00,,,0.00,Wunderground v.1.15,2013-10-28 03:05:00,
2013-10-28 00:10:00,38.4,37.6,29.95,SSW,201,3.0,3.0,97,0.00,,,0.00,Wunderground v.1.15,2013-10-28 03:10:00,
2013-10-28 00:20:00,38.6,37.8,29.95,SSE,155,3.0,15.0,97,0.00,,,0.00,Wunderground v.1.15,2013-10-28 03:20:00,
2013-10-28 00:25:00,38.7,37.9,29.95,SW,218,3.0,15.0,97,0.00,,,0.00,Wunderground v.1.15,2013-10-28 03:25:00,
2013-10-28 00:30:00,38.8,38.0,29.95,South,190,3.0,3.0,97,0.00,,,0.00,Wunderground v.1.15,2013-10-28 03:30:00,
2013-10-28 00:35:00,38.9,38.1,29.95,South,179,2.0,15.0,97,0.00,,,0.00,Wunderground v.1.15,2013-10-28 03:35:00,
2013-10-28 00:40:00,39.0,38.2,29.95,SSW,193,2.0,2.0,97,0.00,,,0.00,Wunderground v.1.15,2013-10-28 03:40:00,
2013-10-28 00:50:00,39.3,38.5,29.95,SSW,198,3.0,3.0,97,0.00,,,0.00,Wunderground v.1.15,2013-10-28 03:50:00,
2013-10-28 00:55:00,39.4,38.6,29.95,SSW,200,3.0,15.0,97,0.00,,,0.00,Wunderground v.1.15,2013-10-28 03:55:00,
2013-10-28 01:00:00,39.6,38.8,29.95,South,191,3.0,3.0,97,0.00,,,0.00,Wunderground v.1.15,2013-10-28 04:00:00,
2013-10-28 01:05:00,39.7,38.9,29.95,SSW,212,3.0,15.0,97,0.00,,,0.00,Wunderground v.1.15,2013-10-28 04:05:00,
2013-10-28 01:10:00,39.8,39.0,29.95,South,184,2.0,15.0,97,0.00,,,0.00,Wunderground v.1.15,2013-10-28 04:10:00,
2013-10-28 01:15:00,39.9,39.1,29.95,South,184,3.0,15.0,97,0.00,,,0.00,Wunderground v.1.15,2013-10-28 04:15:00,
2013-10-28 01:20:00,40.1,39.3,29.95,SW,224,4.0,15.0,97,0.00,,,0.00,Wunderground v.1.15,2013-10-28 04:20:00,
2013-10-28 01:25:00,40.2,39.2,29.95,SSW,212,4.0,15.0,96,0.00,,,0.00,Wunderground v.1.15,2013-10-28 04:25:00,
2013-10-28 01:30:00,40.2,39.2,29.95,SSW,198,3.0,15.0,96,0.00,,,0.00,Wunderground v.1.15,2013-10-28 04:30:00,
2013-10-28 01:35:00,40.2,39.2,29.95,SSW,201,3.0,15.0,96,0.00,,,0.00,Wunderground v.1.15,2013-10-28 04:35:00,
2013-10-28 01:40:00,40.3,39.3,29.96,SSW,200,3.0,3.0,96,0.00,,,0.00,Wunderground v.1.15,2013-10-28 04:40:00,
2013-10-28 01:45:00,40.3,39.3,29.96,SSW,211,3.0,15.0,96,0.00,,,0.00,Wunderground v.1.15,2013-10-28 04:45:00,
2013-10-28 01:55:00,40.4,39.4,29.96,SSW,195,3.0,15.0,96,0.00,,,0.00,Wunderground v.1.15,2013-10-28 04:55:00,
2013-10-28 02:00:00,40.4,39.4,29.96,South,175,3.0,15.0,96,0.00,,,0.00,Wunderground v.1.15,2013-10-28 05:00:00,
2013-10-28 02:05:00,40.4,39.4,29.96,SSW,198,3.0,15.0,96,0.00,,,0.00,Wunderground v.1.15,2013-10-28 05:05:00,
2013-10-28 02:10:00,40.4,39.4,29.96,South,186,2.0,15.0,96,0.00,,,0.00,Wunderground v.1.15,2013-10-28 05:10:00,
2013-10-28 02:15:00,40.4,39.4,29.96,SSW,195,3.0,15.0,96,0.00,,,0.00,Wunderground v.1.15,2013-10-28 05:15:00,
2013-10-28 02:20:00,40.5,39.4,29.96,South,188,2.0,15.0,96,0.00,,,0.00,Wunderground v.1.15,2013-10-28 05:20:00,
2013-10-28 02:30:00,40.6,39.5,29.96,SSW,200,2.0,15.0,96,0.00,,,0.00,Wunderground v.1.15,2013-10-28 05:30:00,
2013-10-28 02:35:00,40.5,39.4,29.96,SSE,160,2.0,15.0,96,0.00,,,0.00,Wunderground v.1.15,2013-10-28 05:35:00,
2013-10-28 02:40:00,40.5,39.4,29.96,South,181,2.0,15.0,96,0.00,,,0.00,Wunderground v.1.15,2013-10-28 05:40:00,
2013-10-28 02:45:00,40.5,39.4,29.96,SSW,210,2.0,15.0,96,0.00,,,0.00,Wunderground v.1.15,2013-10-28 05:45:00,
2013-10-28 02:50:00,40.6,39.5,29.96,SSW,195,2.0,2.0,96,0.00,,,0.00,Wunderground v.1.15,2013-10-28 05:50:00,
2013-10-28 03:00:00,40.6,39.5,29.97,SSW,194,2.0,15.0,96,0.00,,,0.00,Wunderground v.1.15,2013-10-28 06:00:00,
2013-10-28 03:05:00,40.6,39.5,29.96,South,187,2.0,15.0,96,0.00,,,0.00,Wunderground v.1.15,2013-10-28 06:05:00,
2013-10-28 03:10:00,40.6,39.5,29.96,South,187,2.0,15.0,96,0.00,,,0.00,Wunderground v.1.15,2013-10-28 06:10:00,
2013-10-28 03:15:00,40.4,39.4,29.96,SSW,203,2.0,15.0,96,0.00,,,0.00,Wunderground v.1.15,2013-10-28 06:15:00,
2013-10-28 03:20:00,40.3,39.3,29.96,SSW,197,2.0,2.0,96,0.00,,,0.00,Wunderground v.1.15,2013-10-28 06:20:00,
2013-10-28 03:25:00,40.0,38.7,29.96,South,188,2.0,15.0,95,0.00,,,0.00,Wunderground v.1.15,2013-10-28 06:25:00,
2013-10-28 03:30:00,39.8,38.8,29.96,SSW,195,1.0,15.0,96,0.00,,,0.00,Wunderground v.1.15,2013-10-28 06:30:00,
2013-10-28 03:35:00,39.7,38.7,29.96,South,169,2.0,15.0,96,0.00,,,0.00,Wunderground v.1.15,2013-10-28 06:35:00,
2013-10-28 03:40:00,39.6,38.6,29.96,South,189,2.0,15.0,96,0.00,,,0.00,Wunderground v.1.15,2013-10-28 06:40:00,
2013-10-28 03:45:00,39.6,38.6,29.96,South,190,2.0,15.0,96,0.00,,,0.00,Wunderground v.1.15,2013-10-28 06:45:00,
2013-10-28 03:50:00,39.7,38.7,29.96,SSW,193,3.0,15.0,96,0.00,,,0.00,Wunderground v.1.15,2013-10-28 06:50:00,
2013-10-28 03:55:00,39.8,38.8,29.96,South,173,3.0,15.0,96,0.00,,,0.00,Wunderground v.1.15,2013-10-28 06:55:00,
2013-10-28 04:05:00,39.9,38.9,29.96,SSW,195,3.0,15.0,96,0.00,,,0.00,Wunderground v.1.15,2013-10-28 07:05:00,
2013-10-28 04:10:00,39.9,38.9,29.96,SSW,200,3.0,3.0,96,0.00,,,0.00,Wunderground v.1.15,2013-10-28 07:10:00,
2013-10-28 04:15:00,39.9,38.9,29.95,South,181,2.0,5.0,96,0.00,,,0.00,Wunderground v.1.15,2013-10-28 07:15:00,
2013-10-28 04:20:00,39.9,38.9,29.95,SSW,198,3.0,15.0,96,0.00,,,0.00,Wunderground v.1.15,2013-10-28 07:20:00,
2013-10-28 04:25:00,39.9,38.9,29.96,SSW,208,3.0,15.0,96,0.00,,,0.00,Wunderground v.1.15,2013-10-28 07:25:00,
2013-10-28 04:35:00,40.1,39.1,29.96,SSW,198,3.0,15.0,96,0.00,,,0.00,Wunderground v.1.15,2013-10-28 07:35:00,
2013-10-28 04:40:00,40.1,39.1,29.96,South,188,2.0,15.0,96,0.00,,,0.00,Wunderground v.1.15,2013-10-28 07:40:00,
2013-10-28 04:45:00,40.2,39.2,29.96,SSW,197,2.0,15.0,96,0.00,,,0.00,Wunderground v.1.15,2013-10-28 07:45:00,
2013-10-28 04:50:00,40.3,39.3,29.96,South,186,2.0,15.0,96,0.00,,,0.00,Wunderground v.1.15,2013-10-28 07:50:00,
2013-10-28 04:55:00,40.4,39.4,29.96,South,189,3.0,15.0,96,0.00,,,0.00,Wunderground v.1.15,2013-10-28 07:55:00,
2013-10-28 05:00:00,40.6,39.5,29.96,WSW,240,3.0,15.0,96,0.00,,,0.00,Wunderground v.1.15,2013-10-28 08:00:00,
2013-10-28 05:10:00,40.8,39.5,29.97,SSW,207,3.0,3.0,95,0.00,,,0.00,Wunderground v.1.15,2013-10-28 08:10:00,
2013-10-28 05:15:00,40.8,39.5,29.97,WSW,242,3.0,15.0,95,0.00,,,0.00,Wunderground v.1.15,2013-10-28 08:15:00,
2013-10-28 05:20:00,40.9,39.6,29.97,SW,218,3.0,15.0,95,0.00,,,0.00,Wunderground v.1.15,2013-10-28 08:20:00,
2013-10-28 05:25:00,41.1,39.8,29.97,SW,215,3.0,15.0,95,0.00,,,0.00,Wunderground v.1.15,2013-10-28 08:25:00,
2013-10-28 05:30:00,41.3,40.0,29.97,SSW,197,3.0,15.0,95,0.00,,,0.00,Wunderground v.1.15,2013-10-28 08:30:00,
2013-10-28 05:40:00,41.3,39.7,29.97,WSW,255,3.0,15.0,94,0.00,,,0.00,Wunderground v.1.15,2013-10-28 08:40:00,
2013-10-28 05:45:00,41.4,39.8,29.97,South,191,2.0,15.0,94,0.00,,,0.00,Wunderground v.1.15,2013-10-28 08:45:00,
2013-10-28 05:50:00,41.4,39.8,29.97,SW,233,3.0,15.0,94,0.00,,,0.00,Wunderground v.1.15,2013-10-28 08:50:00,
2013-10-28 05:55:00,41.4,39.8,29.97,SSW,212,4.0,15.0,94,0.00,,,0.00,Wunderground v.1.15,2013-10-28 08:55:00,
2013-10-28 06:00:00,41.3,39.7,29.97,SSE,150,3.0,3.0,94,0.00,,,0.00,Wunderground v.1.15,2013-10-28 09:00:00,
2013-10-28 06:05:00,41.1,39.5,29.98,SSW,203,3.0,15.0,94,0.00,,,0.00,Wunderground v.1.15,2013-10-28 09:05:00,
2013-10-28 06:15:00,40.9,39.3,29.98,SSW,212,3.0,15.0,94,0.00,,,0.00,Wunderground v.1.15,2013-10-28 09:15:00,
2013-10-28 06:20:00,40.8,39.2,29.97,WSW,240,3.0,15.0,94,0.00,,,0.00,Wunderground v.1.15,2013-10-28 09:20:00,
2013-10-28 06:25:00,40.7,39.1,29.97,SW,224,3.0,15.0,94,0.00,,,0.00,Wunderground v.1.15,2013-10-28 09:25:00,
2013-10-28 06:30:00,40.6,39.0,29.97,West,273,3.0,3.0,94,0.00,,,0.00,Wunderground v.1.15,2013-10-28 09:30:00,
2013-10-28 06:35:00,40.6,39.0,29.97,South,179,3.0,15.0,94,0.00,,,0.00,Wunderground v.1.15,2013-10-28 09:35:00,
2013-10-28 06:45:00,40.1,38.5,29.97,South,191,2.0,15.0,94,0.00,,,0.00,Wunderground v.1.15,2013-10-28 09:45:00,
2013-10-28 06:50:00,40.0,38.4,29.97,SSW,198,2.0,2.0,94,0.00,,,0.00,Wunderground v.1.15,2013-10-28 09:50:00,
2013-10-28 06:55:00,40.0,38.4,29.98,SW,224,2.0,8.0,94,0.00,,,0.00,Wunderground v.1.15,2013-10-28 09:55:00,
2013-10-28 07:00:00,40.1,38.5,29.98,SSW,206,2.0,2.0,94,0.00,,,0.00,Wunderground v.1.15,2013-10-28 10:00:00,
2013-10-28 07:05:00,40.1,38.5,29.98,SW,214,3.0,3.0,94,0.00,,,0.00,Wunderground v.1.15,2013-10-28 10:05:00,
2013-10-28 07:10:00,40.1,38.5,29.98,SSW,211,3.0,15.0,94,0.00,,,0.00,Wunderground v.1.15,2013-10-28 10:10:00,
2013-10-28 07:20:00,40.0,38.4,29.99,SSW,195,3.0,3.0,94,0.00,,,0.00,Wunderground v.1.15,2013-10-28 10:20:00,
2013-10-28 07:25:00,39.9,38.3,29.99,South,187,3.0,15.0,94,0.00,,,0.00,Wunderground v.1.15,2013-10-28 10:25:00,
2013-10-28 07:30:00,39.8,38.2,29.99,SSW,194,3.0,15.0,94,0.00,,,0.00,Wunderground v.1.15,2013-10-28 10:30:00,
2013-10-28 07:35:00,39.8,38.2,29.99,SW,226,3.0,15.0,94,0.00,,,0.00,Wunderground v.1.15,2013-10-28 10:35:00,
2013-10-28 07:40:00,39.9,38.6,29.99,SSW,201,3.0,15.0,95,0.00,,,0.00,Wunderground v.1.15,2013-10-28 10:40:00,
2013-10-28 07:50:00,40.1,38.8,29.99,SW,217,3.0,15.0,95,0.00,,,0.00,Wunderground v.1.15,2013-10-28 10:50:00,
2013-10-28 07:55:00,40.2,38.6,29.99,South,187,2.0,15.0,94,0.00,,,0.00,Wunderground v.1.15,2013-10-28 10:55:00,
2013-10-28 08:00:00,40.3,38.7,30.00,SSW,206,2.0,2.0,94,0.00,,,0.00,Wunderground v.1.15,2013-10-28 11:00:00,
2013-10-28 08:05:00,40.4,38.8,30.00,SW,215,2.0,15.0,94,0.00,,,0.00,Wunderground v.1.15,2013-10-28 11:05:00,
2013-10-28 08:10:00,40.5,38.9,30.00,SW,217,2.0,15.0,94,0.00,,,0.00,Wunderground v.1.15,2013-10-28 11:10:00,
2013-10-28 08:15:00,40.6,39.0,30.00,WSW,239,2.0,15.0,94,0.00,,,0.00,Wunderground v.1.15,2013-10-28 11:15:00,
2013-10-28 08:20:00,40.8,39.2,30.00,SW,226,2.0,2.0,94,0.00,,,0.00,Wunderground v.1.15,2013-10-28 11:20:00,
2013-10-28 08:25:00,40.8,39.2,30.01,South,170,1.0,15.0,94,0.00,,,0.00,Wunderground v.1.15,2013-10-28 11:25:00,
2013-10-28 08:30:00,40.8,39.2,30.01,South,188,1.0,1.0,94,0.00,,,0.00,Wunderground v.1.15,2013-10-28 11:30:00,
2013-10-28 08:35:00,40.8,39.2,30.01,SW,221,0.0,15.0,94,0.00,,,0.01,Wunderground v.1.15,2013-10-28 11:35:00,
2013-10-28 08:40:00,40.7,38.8,30.01,West,280,1.0,1.0,93,0.00,,,0.01,Wunderground v.1.15,2013-10-28 11:40:00,
2013-10-28 08:45:00,40.5,38.6,30.02,WSW,245,2.0,2.0,93,0.00,,,0.01,Wunderground v.1.15,2013-10-28 11:45:00,
2013-10-28 08:55:00,40.3,38.2,30.02,SW,232,1.0,5.0,92,0.00,,,0.01,Wunderground v.1.15,2013-10-28 11:55:00,
2013-10-28 09:00:00,40.3,38.2,30.02,SW,218,1.0,15.0,92,0.00,,,0.01,Wunderground v.1.15,2013-10-28 12:00:00,
2013-10-28 09:05:00,40.4,38.3,30.02,SSW,198,2.0,15.0,92,0.00,,,0.01,Wunderground v.1.15,2013-10-28 12:05:00,
2013-10-28 09:10:00,40.6,38.2,30.02,SW,218,3.0,15.0,91,0.00,,,0.01,Wunderground v.1.15,2013-10-28 12:10:00,
2013-10-28 09:15:00,40.9,37.9,30.02,SW,225,4.0,15.0,89,0.00,,,0.01,Wunderground v.1.15,2013-10-28 12:15:00,
2013-10-28 09:25:00,41.9,38.9,30.03,SSW,195,4.0,6.0,89,0.00,,,0.01,Wunderground v.1.15,2013-10-28 12:25:00,
2013-10-28 09:30:00,42.3,39.3,30.03,West,270,3.0,3.0,89,0.00,,,0.01,Wunderground v.1.15,2013-10-28 12:30:00,
2013-10-28 09:35:00,42.3,39.0,30.03,SW,233,4.0,4.0,88,0.00,,,0.01,Wunderground v.1.15,2013-10-28 12:35:00,
2013-10-28 09:40:00,42.2,38.9,30.03,NNW,333,3.0,3.0,88,0.00,,,0.01,Wunderground v.1.15,2013-10-28 12:40:00,
2013-10-28 09:45:00,42.0,38.7,30.03,WSW,238,2.0,5.0,88,0.00,,,0.01,Wunderground v.1.15,2013-10-28 12:45:00,
2013-10-28 09:50:00,42.2,39.2,30.03,SSW,212,2.0,15.0,89,0.00,,,0.01,Wunderground v.1.15,2013-10-28 12:50:00,
2013-10-28 10:00:00,42.4,39.1,30.03,SW,221,3.0,15.0,88,0.00,,,0.01,Wunderground v.1.15,2013-10-28 13:00:00,
2013-10-28 10:05:00,42.7,39.4,30.03,North,355,2.0,15.0,88,0.00,,,0.01,Wunderground v.1.15,2013-10-28 13:05:00,
2013-10-28 10:10:00,43.1,39.5,30.03,SSW,212,2.0,15.0,87,0.00,,,0.01,Wunderground v.1.15,2013-10-28 13:10:00,
2013-10-28 10:15:00,43.1,38.9,30.03,SW,224,2.0,15.0,85,0.00,,,0.01,Wunderground v.1.15,2013-10-28 13:15:00,
2013-10-28 10:20:00,42.8,38.6,30.04,West,281,4.0,15.0,85,0.00,,,0.01,Wunderground v.1.15,2013-10-28 13:20:00,
2013-10-28 10:30:00,43.6,39.4,30.04,WSW,249,3.0,3.0,85,0.00,,,0.01,Wunderground v.1.15,2013-10-28 13:30:00,
2013-10-28 10:35:00,43.9,38.4,30.05,South,188,2.0,4.0,81,0.00,,,0.01,Wunderground v.1.15,2013-10-28 13:35:00,
2013-10-28 10:40:00,44.2,39.1,30.05,West,276,3.0,3.0,82,0.00,,,0.01,Wunderground v.1.15,2013-10-28 13:40:00,
2013-10-28 10:45:00,44.4,38.6,30.04,SSW,193,3.0,15.0,80,0.00,,,0.01,Wunderground v.1.15,2013-10-28 13:45:00,
2013-10-28 10:50:00,44.3,38.2,30.04,WSW,240,3.0,3.0,79,0.00,,,0.01,Wunderground v.1.15,2013-10-28 13:50:00,
2013-10-28 10:55:00,44.1,38.0,30.04,SW,221,3.0,6.0,79,0.00,,,0.01,Wunderground v.1.15,2013-10-28 13:55:00,
2013-10-28 11:05:00,43.9,37.2,30.04,West,271,4.0,15.0,77,0.00,,,0.01,Wunderground v.1.15,2013-10-28 14:05:00,
2013-10-28 11:10:00,44.4,37.6,30.04,West,262,3.0,3.0,77,0.00,,,0.01,Wunderground v.1.15,2013-10-28 14:10:00,
2013-10-28 11:15:00,44.8,38.4,30.04,NW,313,3.0,5.0,78,0.00,,,0.01,Wunderground v.1.15,2013-10-28 14:15:00,
2013-10-28 11:20:00,44.6,37.5,30.04,West,259,3.0,15.0,76,0.00,,,0.01,Wunderground v.1.15,2013-10-28 14:20:00,
2013-10-28 11:25:00,44.5,36.7,30.05,WSW,248,4.0,15.0,74,0.00,,,0.01,Wunderground v.1.15,2013-10-28 14:25:00,
2013-10-28 11:35:00,44.3,36.2,30.05,West,264,4.0,15.0,73,0.00,,,0.01,Wunderground v.1.15,2013-10-28 14:35:00,
2013-10-28 11:40:00,44.4,35.6,30.05,West,259,3.0,15.0,71,0.00,,,0.01,Wunderground v.1.15,2013-10-28 14:40:00,
2013-10-28 11:45:00,44.6,36.5,30.06,West,279,3.0,15.0,73,0.00,,,0.01,Wunderground v.1.15,2013-10-28 14:45:00,
2013-10-28 11:50:00,44.9,36.1,30.06,SSW,211,3.0,3.0,71,0.00,,,0.01,Wunderground v.1.15,2013-10-28 14:50:00,
2013-10-28 11:55:00,45.2,36.4,30.06,West,278,3.0,4.0,71,0.00,,,0.01,Wunderground v.1.15,2013-10-28 14:55:00,
2013-10-28 12:00:00,45.3,36.1,30.06,West,274,4.0,15.0,70,0.00,,,0.01,Wunderground v.1.15,2013-10-28 15:00:00,
2013-10-28 12:05:00,45.1,35.5,30.06,SSW,204,4.0,15.0,69,0.00,,,0.01,Wunderground v.1.15,2013-10-28 15:05:00,
2013-10-28 12:10:00,45.1,34.8,30.06,SSW,208,4.0,4.0,67,0.00,,,0.01,Wunderground v.1.15,2013-10-28 15:10:00,
2013-10-28 12:15:00,45.2,35.6,30.06,West,281,4.0,15.0,69,0.00,,,0.01,Wunderground v.1.15,2013-10-28 15:15:00,
2013-10-28 12:20:00,45.0,34.7,30.06,WSW,242,3.0,15.0,67,0.00,,,0.01,Wunderground v.1.15,2013-10-28 15:20:00,
2013-10-28 12:25:00,44.7,35.1,30.06,SW,225,3.0,15.0,69,0.00,,,0.01,Wunderground v.1.15,2013-10-28 15:25:00,
2013-10-28 12:30:00,45.2,34.9,30.05,SW,219,4.0,15.0,67,0.00,,,0.01,Wunderground v.1.15,2013-10-28 15:30:00,
2013-10-28 12:35:00,44.7,34.8,30.05,West,262,4.0,15.0,68,0.00,,,0.01,Wunderground v.1.15,2013-10-28 15:35:00,
2013-10-28 12:45:00,44.6,35.4,30.05,SW,219,4.0,8.0,70,0.00,,,0.01,Wunderground v.1.15,2013-10-28 15:45:00,
2013-10-28 12:50:00,45.2,36.0,30.05,WSW,242,6.0,6.0,70,0.00,,,0.01,Wunderground v.1.15,2013-10-28 15:50:00,
2013-10-28 12:55:00,46.3,36.7,30.05,WSW,243,5.0,15.0,69,0.00,,,0.01,Wunderground v.1.15,2013-10-28 15:55:00,
2013-10-28 13:00:00,46.6,36.2,30.05,South,187,5.0,15.0,67,0.00,,,0.01,Wunderground v.1.15,2013-10-28 16:00:00,
2013-10-28 13:05:00,46.4,34.9,30.05,SSW,195,6.0,15.0,64,0.00,,,0.01,Wunderground v.1.15,2013-10-28 16:05:00,
2013-10-28 13:10:00,45.8,34.7,30.05,WSW,249,7.0,15.0,65,0.00,,,0.01,Wunderground v.1.15,2013-10-28 16:10:00,
2013-10-28 13:20:00,45.7,32.2,30.05,SSW,210,6.0,6.0,59,0.00,,,0.01,Wunderground v.1.15,2013-10-28 16:20:00,
2013-10-28 13:25:00,45.7,34.6,30.05,South,170,6.0,15.0,65,0.00,,,0.01,Wunderground v.1.15,2013-10-28 16:25:00,
2013-10-28 13:30:00,44.7,32.1,30.06,SSW,203,5.0,5.0,61,0.00,,,0.01,Wunderground v.1.15,2013-10-28 16:30:00,
2013-10-28 13:35:00,44.3,32.9,30.06,SSW,203,4.0,15.0,64,0.00,,,0.01,Wunderground v.1.15,2013-10-28 16:35:00,
2013-10-28 13:40:00,44.6,32.4,30.06,SW,222,5.0,15.0,62,0.00,,,0.01,Wunderground v.1.15,2013-10-28 16:40:00,
2013-10-28 13:45:00,44.3,33.3,30.06,SW,214,5.0,15.0,65,0.00,,,0.01,Wunderground v.1.15,2013-10-28 16:45:00,
2013-10-28 13:50:00,43.7,33.5,30.05,SSW,207,4.0,4.0,67,0.00,,,0.01,Wunderground v.1.15,2013-10-28 16:50:00,
2013-10-28 13:55:00,43.5,33.6,30.06,SW,222,3.0,15.0,68,0.00,,,0.01,Wunderground v.1.15,2013-10-28 16:55:00,
2013-10-28 14:00:00,44.0,34.8,30.06,NW,311,2.0,15.0,70,0.00,,,0.01,Wunderground v.1.15,2013-10-28 17:00:00,
2013-10-28 14:05:00,43.9,33.3,30.05,SSW,198,3.0,15.0,66,0.00,,,0.01,Wunderground v.1.15,2013-10-28 17:05:00,
2013-10-28 14:15:00,44.6,33.6,30.05,SW,218,7.0,15.0,65,0.00,,,0.01,Wunderground v.1.15,2013-10-28 17:15:00,
2013-10-28 14:20:00,45.2,33.7,30.06,SSW,198,7.0,7.0,64,0.00,,,0.01,Wunderground v.1.15,2013-10-28 17:20:00,
2013-10-28 14:25:00,45.4,31.9,30.06,South,191,7.0,15.0,59,0.00,,,0.01,Wunderground v.1.15,2013-10-28 17:25:00,
2013-10-28 14:30:00,45.8,33.1,30.06,SSW,213,6.0,6.0,61,0.00,,,0.01,Wunderground v.1.15,2013-10-28 17:30:00,
2013-10-28 14:35:00,45.9,33.2,30.06,SE,137,5.0,15.0,61,0.00,,,0.01,Wunderground v.1.15,2013-10-28 17:35:00,
2013-10-28 14:40:00,45.1,31.6,30.06,SW,226,7.0,15.0,59,0.00,,,0.01,Wunderground v.1.15,2013-10-28 17:40:00,
2013-10-28 14:50:00,45.6,32.1,30.06,SSW,197,7.0,7.0,59,0.00,,,0.01,Wunderground v.1.15,2013-10-28 17:50:00,
2013-10-28 14:55:00,45.7,32.6,30.06,SSW,207,7.0,15.0,60,0.00,,,0.01,Wunderground v.1.15,2013-10-28 17:55:00,
2013-10-28 15:00:00,46.1,32.1,30.06,SW,224,7.0,15.0,58,0.00,,,0.01,Wunderground v.1.15,2013-10-28 18:00:00,
2013-10-28 15:05:00,46.0,31.6,30.07,WSW,245,7.0,15.0,57,0.00,,,0.01,Wunderground v.1.15,2013-10-28 18:05:00,
2013-10-28 15:10:00,46.2,31.8,30.07,NW,326,7.0,7.0,57,0.00,,,0.01,Wunderground v.1.15,2013-10-28 18:10:00,
2013-10-28 15:20:00,45.5,32.0,30.07,SW,229,5.0,15.0,59,0.00,,,0.01,Wunderground v.1.15,2013-10-28 18:20:00,
2013-10-28 15:25:00,45.7,31.3,30.07,West,260,5.0,15.0,57,0.00,,,0.01,Wunderground v.1.15,2013-10-28 18:25:00,
2013-10-28 15:30:00,45.3,30.5,30.07,SW,225,6.0,6.0,56,0.00,,,0.01,Wunderground v.1.15,2013-10-28 18:30:00,
2013-10-28 15:35:00,45.0,31.5,30.07,SSW,202,4.0,15.0,59,0.00,,,0.01,Wunderground v.1.15,2013-10-28 18:35:00,
2013-10-28 15:40:00,44.9,32.3,30.07,North,349,2.0,2.0,61,0.00,,,0.01,Wunderground v.1.15,2013-10-28 18:40:00,
2013-10-28 15:45:00,44.7,32.1,30.07,SW,221,2.0,4.0,61,0.00,,,0.01,Wunderground v.1.15,2013-10-28 18:45:00,
2013-10-28 15:55:00,45.7,31.3,30.08,SSW,193,4.0,15.0,57,0.00,,,0.01,Wunderground v.1.15,2013-10-28 18:55:00,
2013-10-28 16:00:00,46.1,30.4,30.08,SW,217,4.0,15.0,54,0.00,,,0.01,Wunderground v.1.15,2013-10-28 19:00:00,
2013-10-28 16:05:00,46.1,30.8,30.08,SW,224,6.0,15.0,55,0.00,,,0.01,Wunderground v.1.15,2013-10-28 19:05:00,
2013-10-28 16:10:00,45.8,31.4,30.08,South,185,6.0,15.0,57,0.00,,,0.01,Wunderground v.1.15,2013-10-28 19:10:00,
2013-10-28 16:15:00,45.4,31.0,30.08,SSW,197,6.0,15.0,57,0.00,,,0.01,Wunderground v.1.15,2013-10-28 19:15:00,
2013-10-28 16:25:00,44.9,31.4,30.09,SSW,209,6.0,15.0,59,0.00,,,0.01,Wunderground v.1.15,2013-10-28 19:25:00,
2013-10-28 16:30:00,44.6,32.0,30.09,SSW,212,5.0,5.0,61,0.00,,,0.01,Wunderground v.1.15,2013-10-28 19:30:00,
2013-10-28 16:35:00,44.5,31.9,30.09,SSW,211,4.0,15.0,61,0.00,,,0.01,Wunderground v.1.15,2013-10-28 19:35:00,
2013-10-28 16:40:00,44.5,31.9,30.09,SSW,203,4.0,4.0,61,0.00,,,0.01,Wunderground v.1.15,2013-10-28 19:40:00,
2013-10-28 16:45:00,44.5,32.7,30.09,SW,229,3.0,5.0,63,0.00,,,0.01,Wunderground v.1.15,2013-10-28 19:45:00,
2013-10-28 16:50:00,44.5,33.1,30.09,SSW,212,2.0,15.0,64,0.00,,,0.01,Wunderground v.1.15,2013-10-28 19:50:00,
2013-10-28 17:00:00,44.4,32.6,30.10,WSW,239,3.0,15.0,63,0.00,,,0.01,Wunderground v.1.15,2013-10-28 20:00:00,
2013-10-28 17:05:00,44.4,32.6,30.10,SW,216,3.0,15.0,63,0.00,,,0.01,Wunderground v.1.15,2013-10-28 20:05:00,
2013-10-28 17:10:00,44.4,33.0,30.10,SSW,201,3.0,3.0,64,0.00,,,0.01,Wunderground v.1.15,2013-10-28 20:10:00,
2013-10-28 17:15:00,44.3,32.9,30.10,SW,218,2.0,15.0,64,0.00,,,0.01,Wunderground v.1.15,2013-10-28 20:15:00,
2013-10-28 17:20:00,44.3,32.9,30.10,SW,236,2.0,2.0,64,0.00,,,0.01,Wunderground v.1.15,2013-10-28 20:20:00,
2013-10-28 17:30:00,44.1,33.1,30.10,SSW,210,1.0,15.0,65,0.00,,,0.01,Wunderground v.1.15,2013-10-28 20:30:00,
2013-10-28 17:35:00,44.0,33.4,30.11,SSW,196,2.0,15.0,66,0.00,,,0.01,Wunderground v.1.15,2013-10-28 20:35:00,
2013-10-28 17:40:00,43.9,33.3,30.11,SW,226,1.0,15.0,66,0.00,,,0.01,Wunderground v.1.15,2013-10-28 20:40:00,
2013-10-28 17:45:00,43.8,33.2,30.11,SSW,198,1.0,15.0,66,0.00,,,0.01,Wunderground v.1.15,2013-10-28 20:45:00,
2013-10-28 17:50:00,43.8,33.2,30.11,SSW,207,1.0,15.0,66,0.00,,,0.01,Wunderground v.1.15,2013-10-28 20:50:00,
2013-10-28 17:55:00,43.9,33.3,30.11,SSW,210,2.0,15.0,66,0.00,,,0.01,Wunderground v.1.15,2013-10-28 20:55:00,
2013-10-28 18:00:00,43.8,33.6,30.11,SSW,195,2.0,2.0,67,0.00,,,0.01,Wunderground v.1.15,2013-10-28 21:00:00,
2013-10-28 18:05:00,43.8,33.6,30.12,SW,214,1.0,15.0,67,0.00,,,0.01,Wunderground v.1.15,2013-10-28 21:05:00,
2013-10-28 18:10:00,43.8,33.2,30.12,SSW,206,1.0,15.0,66,0.00,,,0.01,Wunderground v.1.15,2013-10-28 21:10:00,
2013-10-28 18:15:00,43.6,33.4,30.12,SSW,204,1.0,15.0,67,0.00,,,0.01,Wunderground v.1.15,2013-10-28 21:15:00,
2013-10-28 18:20:00,43.5,33.3,30.13,West,273,1.0,15.0,67,0.00,,,0.01,Wunderground v.1.15,2013-10-28 21:20:00,
2013-10-28 18:25:00,43.4,32.8,30.13,WSW,243,1.0,15.0,66,0.00,,,0.01,Wunderground v.1.15,2013-10-28 21:25:00,
2013-10-28 18:35:00,43.5,32.9,30.13,WSW,245,2.0,15.0,66,0.00,,,0.01,Wunderground v.1.15,2013-10-28 21:35:00,
2013-10-28 18:40:00,43.5,32.5,30.13,SSW,203,2.0,15.0,65,0.00,,,0.01,Wunderground v.1.15,2013-10-28 21:40:00,
2013-10-28 18:45:00,43.6,33.0,30.13,SW,231,2.0,15.0,66,0.00,,,0.01,Wunderground v.1.15,2013-10-28 21:45:00,
2013-10-28 18:50:00,43.6,33.0,30.13,SW,214,1.0,15.0,66,0.00,,,0.01,Wunderground v.1.15,2013-10-28 21:50:00,
2013-10-28 18:55:00,43.5,32.9,30.14,SW,223,1.0,15.0,66,0.00,,,0.01,Wunderground v.1.15,2013-10-28 21:55:00,
2013-10-28 19:05:00,43.6,33.0,30.15,WNW,285,3.0,15.0,66,0.00,,,0.01,Wunderground v.1.15,2013-10-28 22:05:00,
2013-10-28 19:10:00,43.6,33.4,30.15,WNW,288,3.0,15.0,67,0.00,,,0.01,Wunderground v.1.15,2013-10-28 22:10:00,
2013-10-28 19:15:00,43.4,33.9,30.15,West,269,3.0,15.0,69,0.00,,,0.01,Wunderground v.1.15,2013-10-28 22:15:00,
2013-10-28 19:20:00,43.1,33.6,30.16,NW,314,3.0,15.0,69,0.00,,,0.01,Wunderground v.1.15,2013-10-28 22:20:00,
2013-10-28 19:25:00,43.0,33.9,30.16,West,262,2.0,15.0,70,0.00,,,0.01,Wunderground v.1.15,2013-10-28 22:25:00,
2013-10-28 19:30:00,42.8,34.0,30.16,South,177,2.0,2.0,71,0.00,,,0.01,Wunderground v.1.15,2013-10-28 22:30:00,
2013-10-28 19:40:00,42.4,34.4,30.17,SW,233,2.0,15.0,73,0.00,,,0.01,Wunderground v.1.15,2013-10-28 22:40:00,
2013-10-28 19:45:00,42.4,34.4,30.17,NW,305,2.0,15.0,73,0.00,,,0.01,Wunderground v.1.15,2013-10-28 22:45:00,
2013-10-28 19:50:00,42.2,34.5,30.17,WNW,303,2.0,2.0,74,0.00,,,0.01,Wunderground v.1.15,2013-10-28 22:50:00,
2013-10-28 19:55:00,42.1,34.7,30.17,SW,231,1.0,15.0,75,0.00,,,0.01,Wunderground v.1.15,2013-10-28 22:55:00,
2013-10-28 20:00:00,41.9,34.6,30.18,SSW,193,1.0,1.0,75,0.00,,,0.01,Wunderground v.1.15,2013-10-28 23:00:00,
2013-10-28 20:10:00,41.7,34.7,30.18,SSW,193,1.0,15.0,76,0.00,,,0.01,Wunderground v.1.15,2013-10-28 23:10:00,
2013-10-28 20:15:00,41.5,34.8,30.19,SSW,203,1.0,15.0,77,0.00,,,0.01,Wunderground v.1.15,2013-10-28 23:15:00,
2013-10-28 20:20:00,41.5,35.2,30.19,NW,315,2.0,15.0,78,0.00,,,0.01,Wunderground v.1.15,2013-10-28 23:20:00,
2013-10-28 20:25:00,41.2,34.9,30.19,WNW,296,2.0,15.0,78,0.00,,,0.01,Wunderground v.1.15,2013-10-28 23:25:00,
2013-10-28 20:30:00,40.8,34.5,30.19,WNW,285,2.0,15.0,78,0.00,,,0.01,Wunderground v.1.15,2013-10-28 23:30:00,
2013-10-28 20:35:00,40.5,34.5,30.20,West,260,2.0,15.0,79,0.00,,,0.01,Wunderground v.1.15,2013-10-28 23:35:00,
2013-10-28 20:45:00,40.0,34.6,30.20,SSW,207,2.0,15.0,81,0.00,,,0.01,Wunderground v.1.15,2013-10-28 23:45:00,
2013-10-28 20:50:00,39.8,34.4,30.20,SW,221,1.0,15.0,81,0.00,,,0.01,Wunderground v.1.15,2013-10-28 23:50:00,
2013-10-28 20:55:00,39.6,34.2,30.20,WSW,237,1.0,15.0,81,0.00,,,0.01,Wunderground v.1.15,2013-10-28 23:55:00,
2013-10-28 21:00:00,39.4,34.4,30.20,WSW,249,1.0,1.0,82,0.00,,,0.01,Wunderground v.1.15,2013-10-29 00:00:00,
2013-10-28 21:05:00,39.2,34.2,30.21,SSW,206,1.0,15.0,82,0.00,,,0.01,Wunderground v.1.15,2013-10-29 00:05:00,
2013-10-28 21:15:00,38.7,34.3,30.22,SSW,206,1.0,15.0,84,0.00,,,0.01,Wunderground v.1.15,2013-10-29 00:15:00,
2013-10-28 21:20:00,38.6,34.2,30.22,WSW,245,1.0,15.0,84,0.00,,,0.01,Wunderground v.1.15,2013-10-29 00:20:00,
2013-10-28 21:25:00,38.5,34.1,30.22,West,263,1.0,15.0,84,0.00,,,0.01,Wunderground v.1.15,2013-10-29 00:25:00,
2013-10-28 21:30:00,38.5,34.1,30.22,SW,214,1.0,15.0,84,0.00,,,0.01,Wunderground v.1.15,2013-10-29 00:30:00,
2013-10-28 21:35:00,38.4,34.0,30.22,SW,224,1.0,15.0,84,0.00,,,0.01,Wunderground v.1.15,2013-10-29 00:35:00,
2013-10-28 21:40:00,38.2,33.8,30.23,South,172,1.0,15.0,84,0.00,,,0.01,Wunderground v.1.15,2013-10-29 00:40:00,
2013-10-28 21:45:00,37.9,33.8,30.23,SSW,207,1.0,15.0,85,0.00,,,0.01,Wunderground v.1.15,2013-10-29 00:45:00,
2013-10-28 21:50:00,37.7,33.6,30.23,WSW,243,1.0,15.0,85,0.00,,,0.01,Wunderground v.1.15,2013-10-29 00:50:00,
2013-10-28 21:55:00,37.6,33.5,30.23,SW,217,1.0,15.0,85,0.00,,,0.01,Wunderground v.1.15,2013-10-29 00:55:00,
2013-10-28 22:00:00,37.5,33.7,30.24,WSW,252,1.0,15.0,86,0.00,,,0.01,Wunderground v.1.15,2013-10-29 01:00:00,
2013-10-28 22:10:00,37.5,33.7,30.24,West,278,1.0,15.0,86,0.00,,,0.01,Wunderground v.1.15,2013-10-29 01:10:00,
2013-10-28 22:15:00,37.5,33.7,30.25,SSW,204,2.0,15.0,86,0.00,,,0.01,Wunderground v.1.15,2013-10-29 01:15:00,
2013-10-28 22:20:00,37.5,33.7,30.25,SW,226,1.0,15.0,86,0.00,,,0.01,Wunderground v.1.15,2013-10-29 01:20:00,
2013-10-28 22:25:00,37.4,33.6,30.25,SSW,198,1.0,15.0,86,0.00,,,0.01,Wunderground v.1.15,2013-10-29 01:25:00,
2013-10-28 22:30:00,37.5,33.7,30.26,WNW,295,1.0,1.0,86,0.00,,,0.01,Wunderground v.1.15,2013-10-29 01:30:00,
2013-10-28 22:35:00,37.5,33.7,30.26,SW,224,1.0,15.0,86,0.00,,,0.01,Wunderground v.1.15,2013-10-29 01:35:00,
2013-10-28 22:40:00,37.7,33.9,30.26,SW,224,1.0,15.0,86,0.00,,,0.01,Wunderground v.1.15,2013-10-29 01:40:00,
2013-10-28 22:50:00,37.8,33.7,30.26,West,278,1.0,1.0,85,0.00,,,0.01,Wunderground v.1.15,2013-10-29 01:50:00,
2013-10-28 22:55:00,37.9,33.8,30.26,SSW,192,1.0,15.0,85,0.00,,,0.01,Wunderground v.1.15,2013-10-29 01:55:00,
2013-10-28 23:00:00,37.9,33.8,30.27,SW,226,1.0,15.0,85,0.00,,,0.01,Wunderground v.1.15,2013-10-29 02:00:00,
2013-10-28 23:05:00,37.9,33.8,30.27,South,170,1.0,15.0,85,0.00,,,0.01,Wunderground v.1.15,2013-10-29 02:05:00,
2013-10-28 23:10:00,37.9,33.5,30.27,SSE,166,1.0,1.0,84,0.00,,,0.01,Wunderground v.1.15,2013-10-29 02:10:00,
2013-10-28 23:15:00,37.8,33.4,30.27,South,190,1.0,2.0,84,0.00,,,0.01,Wunderground v.1.15,2013-10-29 02:15:00,
2013-10-28 23:25:00,37.8,33.1,30.28,West,273,1.0,15.0,83,0.00,,,0.01,Wunderground v.1.15,2013-10-29 02:25:00,
2013-10-28 23:30:00,37.7,33.0,30.28,SSW,212,1.0,15.0,83,0.00,,,0.01,Wunderground v.1.15,2013-10-29 02:30:00,
2013-10-28 23:35:00,37.7,33.0,30.28,SSW,210,1.0,15.0,83,0.00,,,0.01,Wunderground v.1.15,2013-10-29 02:35:00,
2013-10-28 23:40:00,37.6,32.9,30.28,NNW,342,1.0,15.0,83,0.00,,,0.01,Wunderground v.1.15,2013-10-29 02:40:00,
2013-10-28 23:45:00,37.7,33.0,30.28,SW,218,1.0,15.0,83,0.00,,,0.01,Wunderground v.1.15,2013-10-29 02:45:00,
2013-10-28 23:55:00,37.8,32.8,30.28,WNW,297,1.0,2.0,82,0.00,,,0.01,Wunderground v.1.15,2013-10-29 02:55:00,